Time;durP1;ratioP1;P1;durP2;ratioP2;P2;SDS_P1;SDS_P2;PMS_P1;PMS_P2;Temp;Humidity;BMP_temperature;BMP_pressure;BME280_temperature;BME280_humidity;BME280_pressure;Samples;Min_cycle;Max_cycle;Signal;HPM_P1;HPM_P2
2021/11/27 00:01:04;;;;;;;68.82;30.35;;;4.70;99.90;;;;;;5015701;23;20070;-76
2021/11/27 00:03:06;;;;;;;52.70;26.27;;;4.70;99.90;;;;;;5016192;23;20316;-75
2021/11/27 00:05:07;;;;;;;62.28;29.70;;;4.80;99.90;;;;;;5016100;23;20047;-75
2021/11/27 00:07:08;;;;;;;63.53;29.25;;;4.70;99.90;;;;;;5016103;23;20474;-75
2021/11/27 00:09:10;;;;;;;58.85;29.35;;;4.70;99.90;;;;;;5016266;23;20015;-75
2021/11/27 00:11:11;;;;;;;52.20;26.98;;;4.60;99.90;;;;;;5013999;23;20015;-75
2021/11/27 00:13:12;;;;;;;55.70;28.30;;;4.60;99.90;;;;;;5015868;23;20015;-76
2021/11/27 00:15:13;;;;;;;58.28;29.42;;;4.70;99.90;;;;;;5015020;23;20372;-77
2021/11/27 00:17:14;;;;;;;51.25;28.85;;;4.70;99.90;;;;;;5013700;23;20379;-77
2021/11/27 00:19:15;;;;;;;57.13;27.85;;;4.60;99.90;;;;;;5013910;23;20039;-77
2021/11/27 00:21:20;;;;;;;50.63;25.48;;;4.60;99.90;;;;;;5015442;23;20101;-76
2021/11/27 00:23:23;;;;;;;35.80;20.38;;;4.70;99.90;;;;;;5015155;23;20384;-76
2021/11/27 00:25:24;;;;;;;44.13;23.70;;;4.80;99.90;;;;;;5014659;23;20041;-76
2021/11/27 00:27:26;;;;;;;41.55;22.42;;;4.70;99.90;;;;;;5015532;23;20010;-77
2021/11/27 00:29:27;;;;;;;42.55;20.50;;;4.70;99.90;;;;;;5015450;23;20023;-76
2021/11/27 00:31:29;;;;;;;40.95;21.55;;;4.70;99.90;;;;;;5015587;23;20395;-76
2021/11/27 00:33:30;;;;;;;35.65;19.40;;;4.70;99.90;;;;;;5013885;23;20635;-77
2021/11/27 00:35:31;;;;;;;29.02;14.45;;;4.70;99.90;;;;;;5015135;23;20011;-77
2021/11/27 00:37:32;;;;;;;23.50;12.70;;;4.60;99.90;;;;;;5015851;23;20034;-77
2021/11/27 00:39:33;;;;;;;23.33;14.05;;;4.70;99.90;;;;;;5015233;23;20011;-76
2021/11/27 00:41:35;;;;;;;17.02;11.05;;;4.60;99.90;;;;;;5014863;23;20018;-76
2021/11/27 00:43:35;;;;;;;16.02;9.00;;;4.50;99.90;;;;;;5015415;23;20011;-76
2021/11/27 00:45:38;;;;;;;11.15;7.97;;;4.40;99.90;;;;;;5015333;23;20015;-77
2021/11/27 00:47:46;;;;;;;7.93;5.73;;;4.30;99.90;;;;;;5015314;23;20037;-76
2021/11/27 00:49:50;;;;;;;11.73;6.15;;;4.30;99.90;;;;;;5013843;23;20018;-77
2021/11/27 00:51:51;;;;;;;10.40;4.88;;;4.30;99.90;;;;;;5012385;23;20017;-76
2021/11/27 00:53:52;;;;;;;8.43;4.15;;;4.20;99.90;;;;;;5014051;23;20522;-77
2021/11/27 00:55:53;;;;;;;6.45;4.00;;;4.10;99.90;;;;;;5014348;23;20126;-76
2021/11/27 00:57:55;;;;;;;4.60;3.10;;;4.10;99.90;;;;;;5012044;23;20387;-76
2021/11/27 00:59:55;;;;;;;3.10;2.63;;;4.10;99.90;;;;;;5013605;23;20011;-76
2021/11/27 01:01:56;;;;;;;5.75;3.10;;;3.90;99.90;;;;;;5012539;23;20011;-75
2021/11/27 01:03:58;;;;;;;3.83;3.05;;;3.80;99.90;;;;;;5014239;23;20007;-77
2021/11/27 01:06:01;;;;;;;7.97;3.22;;;3.80;99.90;;;;;;5014394;23;20432;-75
2021/11/27 01:08:02;;;;;;;10.63;3.67;;;3.70;99.90;;;;;;5013334;23;20003;-76
2021/11/27 01:10:09;;;;;;;10.27;4.10;;;3.70;99.90;;;;;;5012200;23;20011;-74
2021/11/27 01:12:10;;;;;;;7.38;3.65;;;3.70;99.90;;;;;;5014456;23;20288;-78
2021/11/27 01:14:14;;;;;;;4.57;3.20;;;3.70;99.90;;;;;;5013683;23;20003;-77
2021/11/27 01:16:17;;;;;;;6.60;3.30;;;3.70;99.90;;;;;;5013938;23;20014;-77
2021/11/27 01:18:19;;;;;;;10.18;3.58;;;3.60;99.90;;;;;;5013933;23;20022;-77
2021/11/27 01:20:29;;;;;;;3.97;2.65;;;3.50;99.90;;;;;;5011834;23;20055;-77
2021/11/27 01:22:30;;;;;;;2.50;2.30;;;3.50;99.90;;;;;;5013997;23;20018;-76
2021/11/27 01:24:31;;;;;;;5.00;2.40;;;3.50;99.90;;;;;;5013954;23;20038;-77
2021/11/27 01:26:32;;;;;;;7.05;2.40;;;3.40;99.90;;;;;;5013313;23;20022;-76
2021/11/27 01:28:33;;;;;;;3.00;2.38;;;3.40;99.90;;;;;;5012710;23;20015;-77
2021/11/27 01:30:34;;;;;;;5.78;2.70;;;3.30;99.90;;;;;;5011984;23;20094;-77
2021/11/27 01:32:35;;;;;;;3.95;2.45;;;3.20;99.90;;;;;;5014161;23;20015;-77
2021/11/27 01:34:36;;;;;;;5.60;2.80;;;3.30;99.90;;;;;;5014623;23;20161;-76
2021/11/27 01:36:38;;;;;;;4.97;2.47;;;3.30;99.90;;;;;;5014801;23;20435;-76
2021/11/27 01:38:38;;;;;;;5.40;2.40;;;3.30;99.90;;;;;;5014959;23;20011;-77
2021/11/27 01:40:39;;;;;;;2.55;2.20;;;3.20;99.90;;;;;;5015271;23;20022;-76
2021/11/27 01:42:41;;;;;;;6.43;2.20;;;3.20;99.90;;;;;;5014672;23;20023;-76
2021/11/27 01:44:41;;;;;;;5.18;2.40;;;3.20;99.90;;;;;;5014817;23;20462;-76
2021/11/27 01:46:42;;;;;;;4.45;3.05;;;3.10;99.90;;;;;;5015192;23;20015;-76
2021/11/27 01:48:43;;;;;;;9.00;2.78;;;3.10;99.90;;;;;;5012614;23;20019;-77
2021/11/27 01:50:49;;;;;;;4.95;2.70;;;3.10;99.90;;;;;;5015217;23;20090;-76
2021/11/27 01:52:50;;;;;;;9.60;2.83;;;3.00;99.90;;;;;;5015182;23;20022;-77
2021/11/27 01:54:51;;;;;;;5.95;2.40;;;3.00;99.90;;;;;;5014030;23;20098;-76
2021/11/27 01:56:55;;;;;;;3.10;2.45;;;3.00;99.90;;;;;;5015199;23;20015;-78
2021/11/27 01:58:56;;;;;;;5.95;2.67;;;3.10;99.90;;;;;;5014353;23;20011;-75
2021/11/27 02:01:02;;;;;;;6.97;2.47;;;3.10;99.90;;;;;;5015248;23;20061;-77
2021/11/27 02:03:02;;;;;;;4.05;2.72;;;3.10;99.90;;;;;;5012341;23;20466;-77
2021/11/27 02:05:05;;;;;;;8.52;2.72;;;3.10;99.90;;;;;;5013125;23;20023;-77
2021/11/27 02:07:06;;;;;;;4.65;2.55;;;3.00;99.90;;;;;;5012968;23;20075;-77
2021/11/27 02:09:20;;;;;;;5.22;3.63;;;3.10;99.90;;;;;;5014599;23;20023;-77
2021/11/27 02:11:28;;;;;;;5.00;2.85;;;3.10;99.90;;;;;;5015206;23;20049;-77
2021/11/27 02:13:28;;;;;;;6.13;3.05;;;3.10;99.90;;;;;;5014666;23;20017;-77
2021/11/27 02:15:29;;;;;;;9.73;2.83;;;3.30;99.90;;;;;;5015040;23;20451;-77
2021/11/27 02:17:30;;;;;;;5.05;3.00;;;3.30;99.90;;;;;;5013212;23;20400;-77
2021/11/27 02:19:32;;;;;;;3.75;2.92;;;3.20;99.90;;;;;;5015200;23;20801;-77
2021/11/27 02:21:33;;;;;;;6.93;2.90;;;3.20;99.90;;;;;;5014965;23;20114;-76
2021/11/27 02:23:34;;;;;;;5.43;3.13;;;3.10;99.90;;;;;;5012942;23;20471;-77
2021/11/27 02:25:35;;;;;;;7.20;3.20;;;3.20;99.90;;;;;;5015201;23;20070;-77
2021/11/27 02:27:36;;;;;;;5.50;2.90;;;3.10;99.90;;;;;;5014749;23;20099;-77
2021/11/27 02:29:37;;;;;;;4.43;3.00;;;3.10;99.90;;;;;;5014816;23;20768;-76
2021/11/27 02:31:39;;;;;;;6.30;3.50;;;3.20;99.90;;;;;;5015200;23;20017;-77
2021/11/27 02:33:40;;;;;;;5.43;3.10;;;3.30;99.90;;;;;;5013116;23;20050;-77
2021/11/27 02:35:40;;;;;;;7.13;3.35;;;3.20;99.90;;;;;;5013533;23;20097;-77
2021/11/27 02:37:41;;;;;;;4.53;3.60;;;3.20;99.90;;;;;;5014531;23;20010;-77
2021/11/27 02:39:42;;;;;;;5.55;2.97;;;3.20;99.90;;;;;;5012997;23;20432;-77
2021/11/27 02:41:43;;;;;;;6.05;3.05;;;3.20;99.90;;;;;;5014486;23;20509;-77
2021/11/27 02:43:44;;;;;;;5.07;3.25;;;3.10;99.90;;;;;;5012505;23;20467;-78
2021/11/27 02:45:44;;;;;;;10.20;3.80;;;3.20;99.90;;;;;;5012893;23;20017;-75
2021/11/27 02:47:45;;;;;;;4.25;3.20;;;3.20;99.90;;;;;;5014166;23;20010;-77
2021/11/27 02:49:46;;;;;;;5.90;3.17;;;3.20;99.90;;;;;;5014923;23;20049;-76
2021/11/27 02:51:47;;;;;;;6.53;3.00;;;3.10;99.90;;;;;;5014494;23;20065;-78
2021/11/27 02:53:48;;;;;;;9.13;3.30;;;3.10;99.90;;;;;;5012921;23;20011;-76
2021/11/27 02:55:49;;;;;;;4.88;2.72;;;3.10;99.90;;;;;;5014457;23;20514;-77
2021/11/27 02:57:50;;;;;;;5.07;2.90;;;3.10;99.90;;;;;;5014707;23;20007;-77
2021/11/27 02:59:50;;;;;;;7.22;2.80;;;3.10;99.90;;;;;;5013264;23;20050;-77
2021/11/27 03:01:53;;;;;;;8.32;3.05;;;3.10;99.90;;;;;;5012656;23;20042;-77
2021/11/27 03:03:54;;;;;;;3.80;2.70;;;3.10;99.90;;;;;;5015147;23;20329;-77
2021/11/27 03:05:55;;;;;;;4.18;2.40;;;3.10;99.90;;;;;;5014662;23;20049;-77
2021/11/27 03:07:56;;;;;;;4.00;3.20;;;3.10;99.90;;;;;;5014693;23;20033;-75
2021/11/27 03:09:57;;;;;;;6.30;3.25;;;3.10;99.90;;;;;;5012668;23;20015;-75
2021/11/27 03:11:58;;;;;;;10.80;3.53;;;3.00;99.90;;;;;;5014343;23;20014;-75
2021/11/27 03:13:59;;;;;;;2.88;2.65;;;3.00;99.90;;;;;;5015074;23;20015;-76
2021/11/27 03:16:00;;;;;;;8.30;2.70;;;2.90;99.90;;;;;;5012790;23;20106;-76
2021/11/27 03:18:01;;;;;;;5.30;2.50;;;3.00;99.90;;;;;;5014982;23;20007;-76
2021/11/27 03:20:03;;;;;;;6.90;2.78;;;3.00;99.90;;;;;;5014277;23;20046;-76
2021/11/27 03:22:04;;;;;;;4.97;2.42;;;3.00;99.90;;;;;;5015405;23;20387;-76
2021/11/27 03:24:06;;;;;;;7.32;2.50;;;2.90;99.90;;;;;;5016287;23;20007;-75
2021/11/27 03:26:06;;;;;;;5.05;2.75;;;2.90;99.90;;;;;;5016268;23;20018;-75
2021/11/27 03:28:07;;;;;;;6.20;2.53;;;2.90;99.90;;;;;;5014680;23;20390;-76
2021/11/27 03:30:12;;;;;;;5.80;2.78;;;2.90;99.90;;;;;;5015490;23;20015;-77
2021/11/27 03:32:15;;;;;;;5.43;2.90;;;2.80;99.90;;;;;;5015149;23;20030;-74
2021/11/27 03:34:16;;;;;;;7.03;2.88;;;2.80;99.90;;;;;;5015420;23;20062;-76
2021/11/27 03:36:17;;;;;;;10.70;2.97;;;2.80;99.90;;;;;;5012569;23;20040;-77
2021/11/27 03:38:17;;;;;;;5.78;3.60;;;2.80;99.90;;;;;;5014507;23;20026;-77
2021/11/27 03:40:19;;;;;;;8.15;2.70;;;2.90;99.90;;;;;;5014456;23;20455;-76
2021/11/27 03:42:20;;;;;;;8.00;3.08;;;2.90;99.90;;;;;;5015004;23;20019;-76
2021/11/27 03:44:21;;;;;;;7.25;2.60;;;2.90;99.90;;;;;;5014489;23;20015;-75
2021/11/27 03:46:21;;;;;;;5.75;3.10;;;3.00;99.90;;;;;;5014654;23;20098;-75
2021/11/27 03:48:42;;;;;;;8.05;2.60;;;2.90;99.90;;;;;;5013834;23;20443;-75
2021/11/27 03:50:46;;;;;;;6.60;2.80;;;2.90;99.90;;;;;;5015314;23;20082;-76
2021/11/27 03:52:47;;;;;;;3.67;2.72;;;2.90;99.90;;;;;;5016025;23;20097;-74
2021/11/27 03:54:49;;;;;;;4.53;2.70;;;2.90;99.90;;;;;;5015795;23;20007;-75
2021/11/27 03:56:51;;;;;;;4.35;3.60;;;2.90;99.90;;;;;;5015918;23;20042;-76
2021/11/27 03:58:57;;;;;;;9.70;3.13;;;2.90;99.90;;;;;;5016049;23;20343;-76
2021/11/27 04:00:58;;;;;;;4.93;2.50;;;2.90;99.90;;;;;;5015682;23;20074;-76
2021/11/27 04:02:59;;;;;;;3.85;2.92;;;2.90;99.90;;;;;;5016178;23;20332;-74
2021/11/27 04:05:02;;;;;;;5.00;2.80;;;3.00;99.90;;;;;;5015956;23;20105;-75
2021/11/27 04:07:03;;;;;;;8.48;3.05;;;3.00;99.90;;;;;;5015583;23;20022;-75
2021/11/27 04:09:09;;;;;;;4.78;2.97;;;2.90;99.90;;;;;;5015642;23;20051;-75
2021/11/27 04:11:10;;;;;;;6.65;2.90;;;2.90;99.90;;;;;;5015253;23;20015;-74
2021/11/27 04:13:11;;;;;;;4.35;2.75;;;2.90;99.90;;;;;;5016045;23;20017;-75
2021/11/27 04:15:12;;;;;;;13.85;4.15;;;2.80;99.90;;;;;;5013720;23;20089;-75
2021/11/27 04:17:13;;;;;;;10.20;3.35;;;2.90;99.90;;;;;;5015860;23;20387;-76
2021/11/27 04:19:13;;;;;;;10.02;2.95;;;2.90;99.90;;;;;;5015161;23;20038;-75
2021/11/27 04:21:14;;;;;;;5.65;2.97;;;2.80;99.90;;;;;;5015639;23;20011;-76
2021/11/27 04:23:16;;;;;;;8.45;3.13;;;2.80;99.90;;;;;;5015829;23;20015;-75
2021/11/27 04:25:16;;;;;;;5.47;2.83;;;2.80;99.90;;;;;;5015601;23;20038;-74
2021/11/27 04:27:17;;;;;;;8.13;3.63;;;2.80;99.90;;;;;;5015239;23;20030;-75
2021/11/27 04:29:18;;;;;;;6.70;3.13;;;2.80;99.90;;;;;;5015493;23;20446;-75
2021/11/27 04:31:18;;;;;;;10.07;3.45;;;2.90;99.90;;;;;;5015838;23;20015;-75
2021/11/27 04:33:19;;;;;;;7.80;4.43;;;2.90;99.90;;;;;;5013303;23;20042;-75
2021/11/27 04:35:20;;;;;;;3.55;2.75;;;3.00;99.90;;;;;;5015620;23;20316;-75
2021/11/27 04:37:21;;;;;;;6.00;2.92;;;2.90;99.90;;;;;;5014186;23;20077;-75
2021/11/27 04:39:22;;;;;;;7.18;2.70;;;2.90;99.90;;;;;;5014028;23;20022;-75
2021/11/27 04:41:23;;;;;;;9.07;2.58;;;2.90;99.90;;;;;;5015362;23;20780;-75
2021/11/27 04:43:23;;;;;;;4.13;2.30;;;2.90;99.90;;;;;;5014979;23;20383;-75
2021/11/27 04:45:25;;;;;;;6.95;2.58;;;2.90;99.90;;;;;;5015501;23;20037;-75
2021/11/27 04:47:25;;;;;;;11.10;2.53;;;2.90;99.90;;;;;;5014764;23;20022;-75
2021/11/27 04:49:26;;;;;;;11.10;3.63;;;2.90;99.90;;;;;;5014742;23;20019;-75
2021/11/27 04:51:27;;;;;;;3.92;2.38;;;2.90;99.90;;;;;;5013597;23;20007;-75
2021/11/27 04:53:28;;;;;;;3.13;2.35;;;2.90;99.90;;;;;;5013345;23;20026;-76
2021/11/27 04:55:29;;;;;;;2.75;2.17;;;2.80;99.90;;;;;;5016252;23;20015;-75
2021/11/27 04:57:29;;;;;;;3.58;2.47;;;2.80;99.90;;;;;;5015488;23;20018;-75
2021/11/27 04:59:31;;;;;;;2.33;2.10;;;2.80;99.90;;;;;;5015161;23;20078;-74
2021/11/27 05:01:33;;;;;;;7.00;2.60;;;2.80;99.90;;;;;;5015351;23;20011;-75
2021/11/27 05:03:34;;;;;;;5.25;2.35;;;2.80;99.90;;;;;;5015120;23;20015;-75
2021/11/27 05:05:35;;;;;;;2.85;1.73;;;2.90;99.90;;;;;;5015351;23;20435;-74
2021/11/27 05:07:35;;;;;;;4.55;2.42;;;2.90;99.90;;;;;;5014872;23;20447;-76
2021/11/27 05:09:36;;;;;;;2.97;2.25;;;2.80;99.90;;;;;;5015500;23;20089;-76
2021/11/27 05:11:38;;;;;;;6.95;2.25;;;2.70;99.90;;;;;;5013262;23;20015;-76
2021/11/27 05:13:39;;;;;;;5.10;2.40;;;2.70;99.90;;;;;;5015371;23;20010;-75
2021/11/27 05:15:40;;;;;;;2.65;1.95;;;2.70;99.90;;;;;;5015194;23;20015;-76
2021/11/27 05:17:41;;;;;;;4.53;2.40;;;2.60;99.90;;;;;;5015171;23;20105;-75
2021/11/27 05:19:41;;;;;;;10.13;2.80;;;2.70;99.90;;;;;;5015785;23;20015;-76
2021/11/27 05:21:42;;;;;;;4.97;2.15;;;2.70;99.90;;;;;;5015088;23;20038;-75
2021/11/27 05:23:43;;;;;;;3.08;2.22;;;2.60;99.90;;;;;;5015553;23;20399;-75
2021/11/27 05:25:43;;;;;;;5.07;2.60;;;2.50;99.90;;;;;;5015232;23;20422;-76
2021/11/27 05:27:44;;;;;;;2.65;1.80;;;2.50;99.90;;;;;;5012452;23;20019;-76
2021/11/27 05:29:46;;;;;;;2.55;2.10;;;2.50;99.90;;;;;;5011293;23;20023;-75
2021/11/27 05:31:47;;;;;;;4.45;2.13;;;2.50;99.90;;;;;;5012841;23;20010;-75
2021/11/27 05:34:09;;;;;;;2.20;2.00;;;2.40;99.90;;;;;;5012647;23;20018;-77
2021/11/27 05:36:08;;;;;;;3.42;2.08;;;2.50;99.90;;;;;;5013274;23;20097;-76
2021/11/27 05:38:09;;;;;;;5.10;2.58;;;2.50;99.90;;;;;;5015337;23;20014;-76
2021/11/27 05:40:10;;;;;;;3.63;2.05;;;2.40;99.90;;;;;;5012908;23;20066;-77
2021/11/27 05:42:13;;;;;;;2.30;2.10;;;2.30;99.90;;;;;;5014189;23;20027;-76
2021/11/27 05:44:14;;;;;;;2.67;2.33;;;2.20;99.90;;;;;;5015399;23;20018;-76
2021/11/27 05:46:14;;;;;;;2.33;1.90;;;2.00;99.90;;;;;;5014314;23;20017;-77
2021/11/27 05:48:15;;;;;;;2.58;2.28;;;1.90;99.90;;;;;;5014697;23;20388;-77
2021/11/27 05:50:15;;;;;;;5.55;2.40;;;1.90;99.90;;;;;;5014824;23;20034;-77
2021/11/27 05:52:18;;;;;;;2.30;2.10;;;1.70;99.90;;;;;;5013149;23;20097;-77
2021/11/27 05:54:19;;;;;;;4.65;2.30;;;1.70;99.90;;;;;;5015414;23;20034;-76
2021/11/27 05:56:19;;;;;;;5.75;2.78;;;1.70;99.90;;;;;;5014340;23;20018;-77
2021/11/27 05:58:21;;;;;;;2.50;2.28;;;1.70;99.90;;;;;;5015220;23;20064;-76
2021/11/27 06:00:22;;;;;;;2.90;2.58;;;1.70;99.90;;;;;;5014496;23;20015;-76
2021/11/27 06:02:22;;;;;;;5.32;2.42;;;1.60;99.90;;;;;;5013488;23;20110;-76
2021/11/27 06:04:23;;;;;;;9.15;3.13;;;1.60;99.90;;;;;;5014851;23;20478;-76
2021/11/27 06:06:24;;;;;;;4.60;2.72;;;1.50;99.90;;;;;;5013701;23;20011;-76
2021/11/27 06:08:25;;;;;;;2.90;2.50;;;1.50;99.90;;;;;;5013320;23;20014;-75
2021/11/27 06:10:26;;;;;;;3.45;3.15;;;1.50;99.90;;;;;;5013849;23;20098;-75
2021/11/27 06:12:27;;;;;;;3.28;2.97;;;1.50;99.90;;;;;;5015110;23;20095;-76
2021/11/27 06:14:27;;;;;;;5.00;3.00;;;1.40;99.90;;;;;;5014726;23;20411;-75
2021/11/27 06:16:28;;;;;;;8.38;3.00;;;1.40;99.90;;;;;;5012309;23;20093;-75
2021/11/27 06:18:29;;;;;;;3.10;2.80;;;1.30;99.90;;;;;;5012682;23;20089;-75
2021/11/27 06:20:29;;;;;;;3.45;2.75;;;1.30;99.90;;;;;;5012512;23;20015;-75
2021/11/27 06:22:30;;;;;;;4.63;2.95;;;1.30;99.90;;;;;;5013340;23;20154;-75
2021/11/27 06:24:31;;;;;;;4.03;3.15;;;1.40;99.90;;;;;;5014218;23;20855;-74
2021/11/27 06:26:32;;;;;;;8.50;3.45;;;1.30;99.90;;;;;;5012706;23;20040;-74
2021/11/27 06:28:33;;;;;;;3.65;3.10;;;1.30;99.90;;;;;;5014109;23;20038;-75
2021/11/27 06:30:34;;;;;;;3.30;3.00;;;1.20;99.90;;;;;;5014609;23;20018;-76
2021/11/27 06:32:35;;;;;;;4.22;3.20;;;1.30;99.90;;;;;;5014642;23;20104;-75
2021/11/27 06:34:36;;;;;;;7.97;3.75;;;1.30;99.90;;;;;;5013224;23;20038;-75
2021/11/27 06:36:37;;;;;;;6.13;3.75;;;1.30;99.90;;;;;;5014662;23;20047;-74
2021/11/27 06:38:38;;;;;;;6.22;4.20;;;1.20;99.90;;;;;;5014115;23;20031;-75
2021/11/27 06:40:39;;;;;;;4.50;3.65;;;1.20;99.90;;;;;;5012862;23;20046;-75
2021/11/27 06:42:39;;;;;;;5.68;4.22;;;1.20;99.90;;;;;;5014452;23;20023;-75
2021/11/27 06:44:46;;;;;;;6.53;4.57;;;1.20;99.90;;;;;;5012308;23;20331;-75
2021/11/27 06:46:47;;;;;;;6.88;4.22;;;1.30;99.90;;;;;;5014768;23;20425;-76
2021/11/27 06:48:47;;;;;;;7.72;4.57;;;1.30;99.90;;;;;;5013776;23;20090;-75
2021/11/27 06:50:48;;;;;;;7.75;4.18;;;1.30;99.90;;;;;;5014518;23;20038;-76
2021/11/27 06:52:49;;;;;;;10.35;4.28;;;1.30;99.90;;;;;;5013925;23;20122;-75
2021/11/27 06:54:49;;;;;;;6.38;4.40;;;1.20;99.90;;;;;;5015299;23;20447;-76
2021/11/27 06:56:50;;;;;;;10.55;4.60;;;1.20;99.90;;;;;;5014394;23;20049;-75
2021/11/27 06:58:51;;;;;;;7.22;4.40;;;1.20;99.90;;;;;;5014011;23;20127;-75
2021/11/27 07:00:51;;;;;;;9.20;3.83;;;1.30;99.90;;;;;;5014656;23;20435;-75
2021/11/27 07:02:52;;;;;;;6.80;4.38;;;1.30;99.90;;;;;;5014127;23;20066;-74
2021/11/27 07:04:52;;;;;;;7.53;5.15;;;1.30;99.90;;;;;;5012662;23;20094;-75
2021/11/27 07:06:53;;;;;;;8.88;4.78;;;1.30;99.90;;;;;;5014317;23;20015;-75
2021/11/27 07:08:54;;;;;;;8.38;5.38;;;1.30;99.90;;;;;;5013368;23;20518;-75
2021/11/27 07:10:54;;;;;;;6.85;5.10;;;1.30;99.90;;;;;;5014538;23;20438;-75
2021/11/27 07:12:57;;;;;;;8.50;4.85;;;1.40;99.90;;;;;;5013841;23;20021;-75
2021/11/27 07:14:58;;;;;;;10.18;5.28;;;1.40;99.90;;;;;;5014302;23;20022;-75
2021/11/27 07:16:59;;;;;;;9.30;5.40;;;1.40;99.90;;;;;;5013671;23;20015;-76
2021/11/27 07:19:00;;;;;;;9.45;5.05;;;1.40;99.90;;;;;;5014426;23;20379;-75
2021/11/27 07:21:00;;;;;;;10.70;4.38;;;1.40;99.90;;;;;;5014421;23;20014;-75
2021/11/27 07:23:01;;;;;;;11.43;5.40;;;1.50;99.90;;;;;;5013223;23;20641;-75
2021/11/27 07:25:02;;;;;;;11.20;7.22;;;1.50;99.90;;;;;;5014583;23;20078;-75
2021/11/27 07:27:08;;;;;;;11.93;5.13;;;1.50;99.90;;;;;;5013892;23;20015;-76
2021/11/27 07:29:09;;;;;;;6.80;5.03;;;1.50;99.90;;;;;;5012794;23;20158;-76
2021/11/27 07:31:11;;;;;;;10.63;4.70;;;1.60;99.90;;;;;;5012544;23;20447;-76
2021/11/27 07:33:12;;;;;;;5.53;4.78;;;1.70;99.90;;;;;;5013692;23;20011;-75
2021/11/27 07:35:13;;;;;;;12.23;5.07;;;1.80;99.90;;;;;;5013324;23;20532;-76
2021/11/27 07:37:14;;;;;;;8.05;4.35;;;1.70;99.90;;;;;;5010977;23;20379;-76
2021/11/27 07:39:14;;;;;;;8.50;4.53;;;1.70;99.90;;;;;;5011811;23;20308;-75
2021/11/27 07:41:15;;;;;;;9.40;4.97;;;1.80;99.90;;;;;;5012562;23;20042;-75
2021/11/27 07:43:15;;;;;;;8.68;4.53;;;1.80;99.90;;;;;;5013262;23;20034;-76
2021/11/27 07:45:16;;;;;;;7.80;5.20;;;1.80;99.90;;;;;;5010624;23;20070;-75
2021/11/27 07:47:17;;;;;;;7.00;4.60;;;1.70;99.90;;;;;;5012948;23;20022;-75
2021/11/27 07:49:18;;;;;;;9.77;4.28;;;1.70;99.90;;;;;;5013154;23;20027;-75
2021/11/27 07:51:19;;;;;;;8.73;4.65;;;1.70;99.90;;;;;;5013734;23;20026;-75
2021/11/27 07:53:19;;;;;;;7.63;4.00;;;1.70;99.90;;;;;;5012271;23;20128;-75
2021/11/27 07:55:21;;;;;;;7.97;4.57;;;1.70;99.90;;;;;;5012297;23;20102;-75
2021/11/27 07:57:21;;;;;;;6.93;4.90;;;1.70;99.90;;;;;;5010328;23;20015;-75
2021/11/27 07:59:23;;;;;;;6.85;5.32;;;1.80;99.90;;;;;;5013533;23;20638;-75
2021/11/27 08:01:23;;;;;;;9.77;5.05;;;1.80;99.90;;;;;;5012187;23;20034;-75
2021/11/27 08:03:24;;;;;;;9.38;4.60;;;1.80;99.90;;;;;;5014719;23;20007;-76
2021/11/27 08:05:25;;;;;;;9.45;4.53;;;1.80;99.90;;;;;;5013801;23;20011;-75
2021/11/27 08:07:26;;;;;;;10.57;5.25;;;1.80;99.90;;;;;;5013957;23;20007;-75
2021/11/27 08:09:26;;;;;;;6.53;4.20;;;1.90;99.90;;;;;;5015229;23;20014;-76
2021/11/27 08:11:27;;;;;;;6.03;4.53;;;1.90;99.90;;;;;;5014182;23;20347;-76
2021/11/27 08:13:27;;;;;;;7.35;4.75;;;1.80;99.90;;;;;;5015697;23;20018;-76
2021/11/27 08:15:28;;;;;;;7.18;4.43;;;1.80;99.90;;;;;;5014957;23;20011;-76
2021/11/27 08:17:29;;;;;;;4.65;3.95;;;1.80;99.90;;;;;;5016307;23;20015;-74
2021/11/27 08:19:29;;;;;;;9.73;4.35;;;1.90;99.90;;;;;;5015582;23;20063;-76
2021/11/27 08:21:30;;;;;;;8.82;4.53;;;2.00;99.90;;;;;;5015109;23;20014;-75
2021/11/27 08:23:30;;;;;;;6.47;4.35;;;2.00;99.90;;;;;;5016015;23;20018;-75
2021/11/27 08:25:32;;;;;;;8.23;5.03;;;2.00;99.90;;;;;;5013307;23;20367;-75
2021/11/27 08:27:34;;;;;;;6.55;4.35;;;2.10;99.90;;;;;;5014281;23;20383;-75
2021/11/27 08:29:35;;;;;;;5.72;3.85;;;2.10;99.90;;;;;;5015537;23;20022;-76
2021/11/27 08:31:35;;;;;;;6.78;3.70;;;2.10;99.90;;;;;;5014474;23;20474;-76
2021/11/27 08:33:36;;;;;;;8.05;3.40;;;2.10;99.90;;;;;;5015805;23;20011;-75
2021/11/27 08:35:37;;;;;;;6.47;3.60;;;2.10;99.90;;;;;;5013839;23;20149;-74
2021/11/27 08:37:37;;;;;;;7.25;4.03;;;2.10;99.90;;;;;;5015522;23;20019;-77
2021/11/27 08:39:38;;;;;;;5.43;3.65;;;2.20;99.90;;;;;;5014384;23;20604;-76
2021/11/27 08:41:39;;;;;;;4.57;3.90;;;2.20;99.90;;;;;;5013275;23;20034;-76
2021/11/27 08:43:40;;;;;;;5.10;4.05;;;2.20;99.90;;;;;;5014655;23;20384;-75
2021/11/27 08:45:41;;;;;;;8.20;3.58;;;2.20;99.90;;;;;;5015553;23;20015;-75
2021/11/27 08:47:42;;;;;;;5.47;3.22;;;2.20;99.90;;;;;;5015276;23;20042;-75
2021/11/27 08:49:43;;;;;;;4.82;3.42;;;2.20;99.90;;;;;;5015068;23;20050;-75
2021/11/27 08:51:44;;;;;;;4.07;3.38;;;2.30;99.90;;;;;;5013010;23;20083;-76
2021/11/27 08:53:45;;;;;;;7.78;3.53;;;2.20;99.90;;;;;;5014823;23;20018;-75
2021/11/27 08:55:45;;;;;;;9.15;3.90;;;2.20;99.90;;;;;;5015242;23;20035;-76
2021/11/27 08:57:46;;;;;;;6.20;3.17;;;2.20;99.90;;;;;;5014743;23;20026;-75
2021/11/27 08:59:47;;;;;;;4.93;3.70;;;2.20;99.90;;;;;;5012071;23;20093;-74
2021/11/27 09:01:47;;;;;;;5.30;3.17;;;2.20;99.90;;;;;;5014584;23;20365;-74
2021/11/27 09:03:48;;;;;;;8.00;3.50;;;2.30;99.90;;;;;;5015753;23;20011;-74
2021/11/27 09:05:49;;;;;;;7.55;2.80;;;2.20;99.90;;;;;;5015108;23;20007;-74
2021/11/27 09:07:50;;;;;;;5.75;3.65;;;2.30;99.90;;;;;;5014420;23;20443;-74
2021/11/27 09:09:51;;;;;;;5.00;3.15;;;2.20;99.90;;;;;;5015662;23;20025;-75
2021/11/27 09:11:53;;;;;;;3.30;3.00;;;2.30;99.90;;;;;;5014393;23;20351;-75
2021/11/27 09:13:54;;;;;;;3.97;3.50;;;2.20;99.90;;;;;;5015377;23;20034;-75
2021/11/27 09:15:55;;;;;;;10.77;5.82;;;2.30;99.90;;;;;;5015069;23;20029;-75
2021/11/27 09:17:56;;;;;;;6.85;4.10;;;2.30;99.90;;;;;;5014115;23;20097;-75
2021/11/27 09:19:57;;;;;;;5.07;3.40;;;2.20;99.90;;;;;;5013417;23;20014;-75
2021/11/27 09:21:58;;;;;;;4.18;3.75;;;2.20;99.90;;;;;;5014484;23;20142;-75
2021/11/27 09:24:00;;;;;;;5.07;3.80;;;2.20;99.90;;;;;;5014438;23;20053;-74
2021/11/27 09:26:01;;;;;;;7.63;3.92;;;2.20;99.90;;;;;;5013953;23;20428;-74
2021/11/27 09:28:02;;;;;;;7.80;4.63;;;2.10;99.90;;;;;;5012660;23;20062;-74
2021/11/27 09:30:08;;;;;;;4.22;3.40;;;2.10;99.90;;;;;;5014503;23;20039;-74
2021/11/27 09:32:10;;;;;;;5.50;3.63;;;2.10;99.90;;;;;;5011424;23;20439;-74
2021/11/27 09:34:12;;;;;;;5.05;3.85;;;2.20;99.90;;;;;;5012107;23;20522;-74
2021/11/27 09:36:15;;;;;;;7.70;4.68;;;2.30;99.90;;;;;;5010818;23;20018;-74
2021/11/27 09:38:16;;;;;;;6.03;4.30;;;2.20;99.90;;;;;;5012532;23;20030;-74
2021/11/27 09:40:17;;;;;;;6.20;4.55;;;2.30;99.90;;;;;;5011521;23;20025;-75
2021/11/27 09:42:18;;;;;;;9.15;4.88;;;2.40;99.90;;;;;;5013020;23;20031;-75
2021/11/27 09:44:19;;;;;;;7.60;5.35;;;2.30;99.90;;;;;;5011667;23;20026;-75
2021/11/27 09:46:21;;;;;;;11.55;5.45;;;2.30;99.90;;;;;;5012990;23;20015;-75
2021/11/27 09:48:22;;;;;;;12.13;5.03;;;2.30;99.90;;;;;;5013101;23;20335;-75
2021/11/27 09:50:24;;;;;;;17.23;7.47;;;2.30;99.90;;;;;;5011385;23;20031;-75
2021/11/27 09:52:25;;;;;;;16.42;5.85;;;2.30;99.90;;;;;;5014862;23;20009;-75
2021/11/27 09:54:25;;;;;;;11.88;6.32;;;2.30;99.90;;;;;;5013456;23;20039;-75
2021/11/27 09:56:27;;;;;;;8.10;5.18;;;2.30;99.90;;;;;;5014520;23;20021;-75
2021/11/27 09:58:28;;;;;;;10.02;5.65;;;2.50;99.90;;;;;;5013810;23;20014;-75
2021/11/27 10:00:29;;;;;;;8.75;4.90;;;2.60;99.90;;;;;;5015461;23;20061;-75
2021/11/27 10:02:31;;;;;;;9.43;6.07;;;2.50;99.90;;;;;;5013731;23;20102;-75
2021/11/27 10:04:33;;;;;;;11.45;6.22;;;2.50;99.90;;;;;;5015227;23;20455;-75
2021/11/27 10:06:40;;;;;;;10.35;5.28;;;2.60;99.90;;;;;;5014663;23;20022;-75
2021/11/27 10:08:41;;;;;;;19.83;6.25;;;2.60;99.90;;;;;;5013497;23;20030;-75
2021/11/27 10:10:44;;;;;;;10.60;7.03;;;2.70;99.90;;;;;;5014073;23;20011;-75
2021/11/27 10:12:45;;;;;;;12.23;6.00;;;2.80;99.90;;;;;;5013377;23;20015;-75
2021/11/27 10:14:46;;;;;;;14.55;6.47;;;2.80;99.90;;;;;;5014839;23;20007;-80
2021/11/27 10:16:59;;;;;;;10.77;5.40;;;2.80;99.90;;;;;;5015332;23;20082;-79
2021/11/27 10:19:04;;;;;;;9.77;4.43;;;2.80;99.90;;;;;;5015557;23;20015;-81
2021/11/27 10:21:20;;;;;;;7.78;5.00;;;2.80;99.90;;;;;;5013103;23;20011;-79
2021/11/27 10:23:31;;;;;;;10.10;5.03;;;3.00;99.90;;;;;;5013776;23;20443;-79
2021/11/27 10:25:40;;;;;;;15.18;5.55;;;3.00;99.90;;;;;;5013410;23;20007;-79
2021/11/27 10:27:40;;;;;;;17.52;5.75;;;3.00;99.90;;;;;;5013183;23;20010;-80
2021/11/27 10:29:41;;;;;;;10.10;5.78;;;3.00;99.90;;;;;;5013216;23;20021;-79
2021/11/27 10:31:42;;;;;;;10.05;6.05;;;3.00;99.90;;;;;;5012770;23;20467;-80
2021/11/27 10:33:43;;;;;;;13.82;6.70;;;3.00;99.90;;;;;;5013408;23;20006;-79
2021/11/27 10:36:03;;;;;;;11.90;6.53;;;3.10;99.90;;;;;;5014863;23;20030;-77
2021/11/27 10:38:06;;;;;;;10.07;6.90;;;3.20;99.90;;;;;;5013746;23;20019;-79